Time,TemperatureF,DewpointF,PressureIn,WindDirection,WindDirectionDegrees,WindSpeedMPH,WindSpeedGustMPH,Humidity,HourlyPrecipIn,Conditions,Clouds,dailyrainin,SolarRadiationWatts/m^2,SoftwareType,DateUTC
2013-06-03 00:12:00,73.0,71.0,-100.00,ENE,66,2.0,5.0,92,0.00,,,0.39,0.000000,,2013-06-03 05:12:00,
2013-06-03 00:22:00,73.0,71.0,-100.00,ENE,66,2.0,5.0,92,0.00,,,0.39,0.000000,,2013-06-03 05:22:00,
2013-06-03 00:32:00,73.0,71.0,-100.00,ENE,66,2.0,5.0,92,0.00,,,0.39,0.000000,,2013-06-03 05:32:00,
2013-06-03 00:42:00,73.0,71.0,-100.00,ENE,66,2.0,5.0,92,0.00,,,0.39,0.000000,,2013-06-03 05:42:00,
2013-06-03 00:50:00,72.0,70.0,-100.00,NNE,33,2.0,4.0,95,0.00,,,0.39,0.000000,,2013-06-03 05:50:00,
2013-06-03 01:12:00,72.0,70.0,-100.00,NNE,33,2.0,4.0,95,0.00,,,0.39,0.000000,,2013-06-03 06:12:00,
2013-06-03 01:22:00,72.0,70.0,-100.00,NNE,33,2.0,4.0,95,0.00,,,0.39,0.000000,,2013-06-03 06:22:00,
2013-06-03 01:32:00,72.0,70.0,-100.00,NNE,33,2.0,4.0,95,0.00,,,0.39,0.000000,,2013-06-03 06:32:00,
2013-06-03 01:42:00,72.0,70.0,-100.00,NNE,33,2.0,4.0,95,0.00,,,0.39,0.000000,,2013-06-03 06:42:00,
2013-06-03 01:50:00,72.0,71.0,-100.00,SE,128,0.0,4.0,96,0.00,,,0.39,0.000000,,2013-06-03 06:50:00,
2013-06-03 02:12:00,72.0,71.0,-100.00,SE,128,0.0,4.0,96,0.00,,,0.39,0.000000,,2013-06-03 07:12:00,
2013-06-03 02:22:00,72.0,71.0,-100.00,SE,128,0.0,4.0,96,0.00,,,0.39,0.000000,,2013-06-03 07:22:00,
2013-06-03 02:32:00,72.0,71.0,-100.00,SE,128,0.0,4.0,96,0.00,,,0.39,0.000000,,2013-06-03 07:32:00,
2013-06-03 02:42:00,72.0,71.0,-100.00,SE,128,0.0,4.0,96,0.00,,,0.39,0.000000,,2013-06-03 07:42:00,
2013-06-03 02:50:00,71.0,70.0,-100.00,North,355,1.0,3.0,97,0.00,,,0.39,0.000000,,2013-06-03 07:50:00,
2013-06-03 03:12:00,71.0,70.0,-100.00,North,355,1.0,3.0,97,0.00,,,0.39,0.000000,,2013-06-03 08:12:00,
2013-06-03 03:22:00,71.0,70.0,-100.00,North,355,1.0,3.0,97,0.00,,,0.39,0.000000,,2013-06-03 08:22:00,
2013-06-03 03:32:00,71.0,70.0,-100.00,North,355,1.0,3.0,97,0.00,,,0.39,0.000000,,2013-06-03 08:32:00,
2013-06-03 03:42:00,71.0,70.0,-100.00,North,355,1.0,3.0,97,0.00,,,0.39,0.000000,,2013-06-03 08:42:00,
2013-06-03 03:50:00,70.0,69.0,-100.00,NE,38,0.0,2.0,98,0.00,,,0.39,0.000000,,2013-06-03 08:50:00,
2013-06-03 04:12:00,70.0,69.0,-100.00,NE,38,0.0,2.0,98,0.00,,,0.39,0.000000,,2013-06-03 09:12:00,
2013-06-03 04:22:00,70.0,69.0,-100.00,NE,38,0.0,2.0,98,0.00,,,0.39,0.000000,,2013-06-03 09:22:00,
2013-06-03 04:33:00,70.0,69.0,-100.00,NE,38,0.0,2.0,98,0.00,,,0.39,0.000000,,2013-06-03 09:33:00,
2013-06-03 04:42:00,70.0,69.0,-100.00,NE,38,0.0,2.0,98,0.00,,,0.39,0.000000,,2013-06-03 09:42:00,
2013-06-03 04:50:00,69.0,69.0,-100.00,NE,44,0.0,5.0,99,0.00,,,0.39,0.000000,,2013-06-03 09:50:00,
2013-06-03 05:12:00,69.0,69.0,-100.00,NE,44,0.0,5.0,99,0.00,,,0.39,0.000000,,2013-06-03 10:12:00,
2013-06-03 05:22:00,69.0,69.0,-100.00,NE,44,0.0,5.0,99,0.00,,,0.39,0.000000,,2013-06-03 10:22:00,
2013-06-03 05:33:00,69.0,69.0,-100.00,NE,44,0.0,5.0,99,0.00,,,0.39,0.000000,,2013-06-03 10:33:00,
2013-06-03 05:42:00,69.0,69.0,-100.00,NE,44,0.0,5.0,99,0.00,,,0.39,0.000000,,2013-06-03 10:42:00,
2013-06-03 05:50:00,70.0,70.0,-100.00,North,8,1.0,3.0,100,0.00,,,0.39,0.000000,,2013-06-03 10:50:00,
2013-06-03 06:12:00,70.0,70.0,-100.00,North,8,1.0,3.0,100,0.00,,,0.39,0.000000,,2013-06-03 11:12:00,
2013-06-03 06:22:00,70.0,70.0,-100.00,North,8,1.0,3.0,100,0.00,,,0.39,0.000000,,2013-06-03 11:22:00,
2013-06-03 06:32:00,70.0,70.0,-100.00,North,8,1.0,3.0,100,0.00,,,0.39,0.000000,,2013-06-03 11:32:00,
2013-06-03 06:42:00,70.0,70.0,-100.00,North,8,1.0,3.0,100,0.00,,,0.39,0.000000,,2013-06-03 11:42:00,
2013-06-03 06:50:00,71.0,70.0,-100.00,NNE,28,2.0,4.0,98,0.00,,,0.11,38.000000,,2013-06-03 11:50:00,
2013-06-03 07:12:00,71.0,70.0,-100.00,NNE,28,2.0,4.0,98,0.00,,,0.11,38.000000,,2013-06-03 12:12:00,
2013-06-03 07:22:00,71.0,70.0,-100.00,NNE,28,2.0,4.0,98,0.00,,,0.11,38.000000,,2013-06-03 12:22:00,
2013-06-03 07:32:00,71.0,70.0,-100.00,NNE,28,2.0,4.0,98,0.00,,,0.11,38.000000,,2013-06-03 12:32:00,
2013-06-03 07:42:00,71.0,70.0,-100.00,NNE,28,2.0,4.0,98,0.00,,,0.11,38.000000,,2013-06-03 12:42:00,
2013-06-03 07:50:00,76.0,73.0,-100.00,NNE,16,2.0,6.0,91,0.00,,,0.00,197.000000,,2013-06-03 12:50:00,
2013-06-03 08:12:00,76.0,73.0,-100.00,NNE,16,2.0,6.0,91,0.00,,,0.00,197.000000,,2013-06-03 13:12:00,
2013-06-03 08:22:00,76.0,73.0,-100.00,NNE,16,2.0,6.0,91,0.00,,,0.00,197.000000,,2013-06-03 13:22:00,
2013-06-03 08:32:00,76.0,73.0,-100.00,NNE,16,2.0,6.0,91,0.00,,,0.00,197.000000,,2013-06-03 13:32:00,
2013-06-03 08:42:00,76.0,73.0,-100.00,NNE,16,2.0,6.0,91,0.00,,,0.00,197.000000,,2013-06-03 13:42:00,
2013-06-03 08:50:00,83.0,75.0,-100.00,NNW,329,2.0,5.0,76,0.00,,,0.00,377.000000,,2013-06-03 13:50:00,
2013-06-03 09:12:00,83.0,75.0,-100.00,NNW,329,2.0,5.0,76,0.00,,,0.00,377.000000,,2013-06-03 14:12:00,
2013-06-03 09:22:00,83.0,75.0,-100.00,NNW,329,2.0,5.0,76,0.00,,,0.00,377.000000,,2013-06-03 14:22:00,
2013-06-03 09:32:00,83.0,75.0,-100.00,NNW,329,2.0,5.0,76,0.00,,,0.00,377.000000,,2013-06-03 14:32:00,
2013-06-03 09:42:00,83.0,75.0,-100.00,NNW,329,2.0,5.0,76,0.00,,,0.00,377.000000,,2013-06-03 14:42:00,
2013-06-03 09:50:00,82.0,72.0,-100.00,NW,312,4.0,9.0,73,0.00,,,0.00,513.000000,,2013-06-03 14:50:00,
2013-06-03 10:12:00,82.0,72.0,-100.00,NW,312,4.0,9.0,73,0.00,,,0.00,513.000000,,2013-06-03 15:12:00,
2013-06-03 10:22:00,82.0,72.0,-100.00,NW,312,4.0,9.0,73,0.00,,,0.00,513.000000,,2013-06-03 15:22:00,
2013-06-03 10:33:00,82.0,72.0,-100.00,NW,312,4.0,9.0,73,0.00,,,0.00,513.000000,,2013-06-03 15:33:00,
2013-06-03 10:43:00,82.0,72.0,-100.00,NW,312,4.0,9.0,73,0.00,,,0.00,513.000000,,2013-06-03 15:43:00,
2013-06-03 10:50:00,86.0,72.0,-100.00,NNW,328,3.0,9.0,63,0.00,,,0.00,748.000000,,2013-06-03 15:50:00,
2013-06-03 11:13:00,86.0,72.0,-100.00,NNW,328,3.0,9.0,63,0.00,,,0.00,748.000000,,2013-06-03 16:13:00,
2013-06-03 11:23:00,86.0,72.0,-100.00,NNW,328,3.0,9.0,63,0.00,,,0.00,748.000000,,2013-06-03 16:23:00,
2013-06-03 11:33:00,86.0,72.0,-100.00,NNW,328,3.0,9.0,63,0.00,,,0.00,748.000000,,2013-06-03 16:33:00,
2013-06-03 11:42:00,86.0,72.0,-100.00,NNW,328,3.0,9.0,63,0.00,,,0.00,748.000000,,2013-06-03 16:42:00,
2013-06-03 11:50:00,88.0,72.0,-100.00,WNW,284,4.0,8.0,59,0.00,,,0.00,838.000000,,2013-06-03 16:50:00,
2013-06-03 12:12:00,88.0,72.0,-100.00,WNW,284,4.0,8.0,59,0.00,,,0.00,838.000000,,2013-06-03 17:12:00,
2013-06-03 12:22:00,88.0,72.0,-100.00,WNW,284,4.0,8.0,59,0.00,,,0.00,838.000000,,2013-06-03 17:22:00,
2013-06-03 12:33:00,88.0,72.0,-100.00,WNW,284,4.0,8.0,59,0.00,,,0.00,838.000000,,2013-06-03 17:33:00,
2013-06-03 12:42:00,88.0,72.0,-100.00,WNW,284,4.0,8.0,59,0.00,,,0.00,838.000000,,2013-06-03 17:42:00,
2013-06-03 12:50:00,88.0,71.0,-100.00,NNW,327,6.0,10.0,57,0.00,,,0.00,816.000000,,2013-06-03 17:50:00,
2013-06-03 13:12:00,88.0,71.0,-100.00,NNW,327,6.0,10.0,57,0.00,,,0.00,816.000000,,2013-06-03 18:12:00,
2013-06-03 13:22:00,88.0,71.0,-100.00,NNW,327,6.0,10.0,57,0.00,,,0.00,816.000000,,2013-06-03 18:22:00,
2013-06-03 13:32:00,88.0,71.0,-100.00,NNW,327,6.0,10.0,57,0.00,,,0.00,816.000000,,2013-06-03 18:32:00,
2013-06-03 13:42:00,88.0,71.0,-100.00,NNW,327,6.0,10.0,57,0.00,,,0.00,816.000000,,2013-06-03 18:42:00,
2013-06-03 13:50:00,90.0,69.0,-100.00,NW,313,5.0,11.0,51,0.00,,,0.00,649.000000,,2013-06-03 18:50:00,
2013-06-03 14:12:00,90.0,69.0,-100.00,NW,313,5.0,11.0,51,0.00,,,0.00,649.000000,,2013-06-03 19:12:00,
2013-06-03 14:22:00,90.0,69.0,-100.00,NW,313,5.0,11.0,51,0.00,,,0.00,649.000000,,2013-06-03 19:22:00,
2013-06-03 14:32:00,90.0,69.0,-100.00,NW,313,5.0,11.0,51,0.00,,,0.00,649.000000,,2013-06-03 19:32:00,
2013-06-03 14:42:00,90.0,69.0,-100.00,NW,313,5.0,11.0,51,0.00,,,0.00,649.000000,,2013-06-03 19:42:00,
2013-06-03 14:50:00,89.0,72.0,-100.00,SSE,154,4.0,7.0,57,0.00,,,0.00,546.000000,,2013-06-03 19:50:00,
2013-06-03 15:12:00,89.0,72.0,-100.00,SSE,154,4.0,7.0,57,0.00,,,0.00,546.000000,,2013-06-03 20:12:00,
2013-06-03 15:22:00,89.0,72.0,-100.00,SSE,154,4.0,7.0,57,0.00,,,0.00,546.000000,,2013-06-03 20:22:00,
2013-06-03 15:32:00,89.0,72.0,-100.00,SSE,154,4.0,7.0,57,0.00,,,0.00,546.000000,,2013-06-03 20:32:00,
2013-06-03 15:42:00,89.0,72.0,-100.00,SSE,154,4.0,7.0,57,0.00,,,0.00,546.000000,,2013-06-03 20:42:00,
2013-06-03 15:50:00,88.0,73.0,-100.00,SE,133,4.0,8.0,61,0.00,,,0.00,392.000000,,2013-06-03 20:50:00,
2013-06-03 16:12:00,88.0,73.0,-100.00,SE,133,4.0,8.0,61,0.00,,,0.00,392.000000,,2013-06-03 21:12:00,
2013-06-03 16:22:00,88.0,73.0,-100.00,SE,133,4.0,8.0,61,0.00,,,0.00,392.000000,,2013-06-03 21:22:00,
2013-06-03 16:33:00,88.0,73.0,-100.00,SE,133,4.0,8.0,61,0.00,,,0.00,392.000000,,2013-06-03 21:33:00,
2013-06-03 16:43:00,88.0,73.0,-100.00,SE,133,4.0,8.0,61,0.00,,,0.00,392.000000,,2013-06-03 21:43:00,
2013-06-03 16:50:00,82.0,74.0,-100.00,SE,146,6.0,14.0,77,0.00,,,0.00,251.000000,,2013-06-03 21:50:00,
2013-06-03 17:12:00,82.0,74.0,-100.00,SE,146,6.0,14.0,77,0.00,,,0.00,251.000000,,2013-06-03 22:12:00,
2013-06-03 17:22:00,82.0,74.0,-100.00,SE,146,6.0,14.0,77,0.00,,,0.00,251.000000,,2013-06-03 22:22:00,
2013-06-03 17:32:00,82.0,74.0,-100.00,SE,146,6.0,14.0,77,0.00,,,0.00,251.000000,,2013-06-03 22:32:00,
2013-06-03 17:42:00,82.0,74.0,-100.00,SE,146,6.0,14.0,77,0.00,,,0.00,251.000000,,2013-06-03 22:42:00,
2013-06-03 17:50:00,80.0,76.0,-100.00,SE,140,3.0,9.0,89,0.05,,,-99.99,85.000000,,2013-06-03 22:50:00,
2013-06-03 18:12:00,80.0,76.0,-100.00,SE,140,3.0,9.0,89,0.05,,,-99.99,85.000000,,2013-06-03 23:12:00,
2013-06-03 18:22:00,80.0,76.0,-100.00,SE,140,3.0,9.0,89,0.05,,,-99.99,85.000000,,2013-06-03 23:22:00,
2013-06-03 18:32:00,80.0,76.0,-100.00,SE,140,3.0,9.0,89,0.05,,,-99.99,85.000000,,2013-06-03 23:32:00,
2013-06-03 18:42:00,80.0,76.0,-100.00,SE,140,3.0,9.0,89,0.05,,,-99.99,85.000000,,2013-06-03 23:42:00,
2013-06-03 18:50:00,81.0,75.0,-100.00,South,186,3.0,6.0,83,0.00,,,0.05,91.000000,,2013-06-03 23:50:00,
2013-06-03 19:12:00,81.0,75.0,-100.00,South,186,3.0,6.0,83,0.00,,,0.05,91.000000,,2013-06-04 00:12:00,
2013-06-03 19:22:00,81.0,75.0,-100.00,South,186,3.0,6.0,83,0.00,,,0.05,91.000000,,2013-06-04 00:22:00,
2013-06-03 19:32:00,81.0,75.0,-100.00,South,186,3.0,6.0,83,0.00,,,0.05,91.000000,,2013-06-04 00:32:00,
2013-06-03 19:42:00,81.0,75.0,-100.00,South,186,3.0,6.0,83,0.00,,,0.05,91.000000,,2013-06-04 00:42:00,
2013-06-03 19:50:00,80.0,75.0,-100.00,ENE,78,3.0,5.0,86,0.00,,,0.05,26.000000,,2013-06-04 00:50:00,
2013-06-03 20:12:00,80.0,75.0,-100.00,ENE,78,3.0,5.0,86,0.00,,,0.05,26.000000,,2013-06-04 01:12:00,
2013-06-03 20:22:00,80.0,75.0,-100.00,ENE,78,3.0,5.0,86,0.00,,,0.05,26.000000,,2013-06-04 01:22:00,
2013-06-03 20:32:00,80.0,75.0,-100.00,ENE,78,3.0,5.0,86,0.00,,,0.05,26.000000,,2013-06-04 01:32:00,
2013-06-03 20:42:00,80.0,75.0,-100.00,ENE,78,3.0,5.0,86,0.00,,,0.05,26.000000,,2013-06-04 01:42:00,
2013-06-03 20:50:00,77.0,73.0,-100.00,SE,125,5.0,10.0,87,0.00,,,0.05,1.000000,,2013-06-04 01:50:00,
2013-06-03 21:12:00,77.0,73.0,-100.00,SE,125,5.0,10.0,87,0.00,,,0.05,1.000000,,2013-06-04 02:12:00,
2013-06-03 21:22:00,77.0,73.0,-100.00,SE,125,5.0,10.0,87,0.00,,,0.05,1.000000,,2013-06-04 02:22:00,
2013-06-03 21:32:00,77.0,73.0,-100.00,SE,125,5.0,10.0,87,0.00,,,0.05,1.000000,,2013-06-04 02:32:00,
2013-06-03 21:42:00,77.0,73.0,-100.00,SE,125,5.0,10.0,87,0.00,,,0.05,1.000000,,2013-06-04 02:42:00,
2013-06-03 21:50:00,76.0,72.0,-100.00,SE,132,2.0,8.0,86,0.00,,,0.05,0.000000,,2013-06-04 02:50:00,
2013-06-03 22:12:00,76.0,72.0,-100.00,SE,132,2.0,8.0,86,0.00,,,0.05,0.000000,,2013-06-04 03:12:00,
2013-06-03 22:22:00,76.0,72.0,-100.00,SE,132,2.0,8.0,86,0.00,,,0.05,0.000000,,2013-06-04 03:22:00,
2013-06-03 22:32:00,76.0,72.0,-100.00,SE,132,2.0,8.0,86,0.00,,,0.05,0.000000,,2013-06-04 03:32:00,
2013-06-03 22:43:00,76.0,72.0,-100.00,SE,132,2.0,8.0,86,0.00,,,0.05,0.000000,,2013-06-04 03:43:00,
2013-06-03 22:50:00,75.0,73.0,-100.00,ENE,76,2.0,5.0,93,0.00,,,0.05,0.000000,,2013-06-04 03:50:00,
2013-06-03 23:13:00,75.0,73.0,-100.00,ENE,76,2.0,5.0,93,0.00,,,0.05,0.000000,,2013-06-04 04:13:00,
2013-06-03 23:23:00,75.0,73.0,-100.00,ENE,76,2.0,5.0,93,0.00,,,0.05,0.000000,,2013-06-04 04:23:00,
2013-06-03 23:33:00,75.0,73.0,-100.00,ENE,76,2.0,5.0,93,0.00,,,0.05,0.000000,,2013-06-04 04:33:00,
2013-06-03 23:42:00,75.0,73.0,-100.00,ENE,76,2.0,5.0,93,0.00,,,0.05,0.000000,,2013-06-04 04:42:00,
2013-06-03 23:50:00,75.0,73.0,-100.00,NE,53,2.0,4.0,93,0.00,,,0.05,0.000000,,2013-06-04 04:50:00,